DIPPU EDWE-EDWJ

Flight info

Callsign DIPPU
Flight time 0h -2m
Altitude 2500
Route VFR
Aircraft BE38/L-S/S

Departure

Time 2026-05-05 15:29
Airport Emden Airport (EDWE)

Arrival

Time 2026-05-05 15:26
Airport Juist Airport (EDWJ)
Time Latitude Longitude Altitude Speed Heading
2026-05-05 15:26 53.68135 7.05466 11 ft 0 kts 258°
2026-05-05 15:27 53.68128 7.05411 13 ft 10 kts 257°
2026-05-05 15:27 53.68101 7.05220 13 ft 22 kts 256°
2026-05-05 15:27 53.68055 7.05152 12 ft 0 kts 73°
2026-05-05 15:28 53.68056 7.05159 12 ft 11 kts 74°
2026-05-05 15:28 53.68146 7.05754 20 ft 85 kts 77°
2026-05-05 15:28 53.68071 7.06967 229 ft 122 kts 104°
2026-05-05 15:28 53.67711 7.08423 442 ft 144 kts 107°
2026-05-05 15:29 53.67345 7.10058 720 ft 155 kts 102°
2026-05-05 15:29 53.66917 7.11766 992 ft 165 kts 109°
2026-05-05 15:29 53.66383 7.13578 1087 ft 177 kts 110°
2026-05-05 15:29 53.65834 7.15444 1025 ft 172 kts 110°
2026-05-05 15:30 53.65297 7.17147 847 ft 156 kts 112°
2026-05-05 15:30 53.64759 7.18523 796 ft 129 kts 136°
2026-05-05 15:30 53.63922 7.18754 225 ft 129 kts 176°
2026-05-05 15:30 53.63126 7.19151 50 ft 120 kts 153°
2026-05-05 15:31 53.62270 7.19808 350 ft 143 kts 148°
2026-05-05 15:31 53.61314 7.20780 396 ft 151 kts 151°
2026-05-05 15:31 53.60902 7.20158 904 ft 92 kts 323°
2026-05-05 15:31 53.61512 7.19908 380 ft 87 kts 357°
2026-05-05 15:32 53.62124 7.19764 209 ft 89 kts 348°
2026-05-05 15:32 53.62698 7.19419 84 ft 90 kts 348°
2026-05-05 15:32 53.63241 7.19072 12 ft 67 kts 343°
2026-05-05 15:32 53.63547 7.18884 6 ft 35 kts 336°
2026-05-05 15:33 53.63618 7.18907 3 ft 0 kts 124°
2026-05-05 15:33 53.63618 7.18908 3 ft 1 kts 131°
2026-05-05 15:33 53.63571 7.18939 6 ft 13 kts 159°
2026-05-05 15:33 53.63449 7.19015 6 ft 25 kts 159°
2026-05-05 15:34 53.63261 7.19129 5 ft 30 kts 160°
2026-05-05 15:34 53.63210 7.19190 3 ft 6 kts 331°
2026-05-05 15:34 53.63219 7.19184 3 ft 0 kts 338°
2026-05-05 15:37 0.01037 0.00001 53808 ft 0 kts